Presque Isle, Maine
Current Conditions -  °F | °C
As of 2:15 PM on Thursday 30 Oct 2014 (Local Time) from KPQI Reporting Station
Overcast Overcast  
Wind Chill: 44°   Ceiling: 5000
Heat Index: 48°   Visibility: 10mi
Dew Point: 30°   Wind: 9mph
Humidity: 50%   Direction: 300°WNW
Pressure: 29.81"   Gusts: NA
Location:  46.68°N, 68.01°W
Report Text: KPQI 301815Z AUTO 30008KT 10SM OVC050 09/M01 A2981 RMK AO1
Loading
Personal Weather Stations






























Interactive Weather Map
Tropical Storm Tracking
New forecast layout! Learn more

10-Day Weather Forecast

Advertisements
Track Severe Weather on mobile